General Aviation Weather

Text Reports

Enter one or more of the following location identifiers separated by a space:

Zip Code, Four-Character ICAO or Three-Character IATA airport codes.

METAR - Aviation Routine Weather Report
KRCX - Ladysmith, Wisconsin
Updated at 12:55 PM GMT on July 06, 2015 (7:55 AM CDT):
METAR KRCX 061255Z AUTO 11007KT 7SM -RA SCT028 BKN042 OVC048 20/19 A2985 RMK AO2 LTG DSNT E T01960190
TAF - Terminal Area Forecast
KRCX - Ladysmith, Wisconsin
Updated at 12:55 PM GMT on July 06, 2015 (7:55 AM CDT):
No TAF is currently available for this location.
Decoded:
No decoded TAF is available.
PIREP - Pilot Weather Report
KRCX - Ladysmith, Wisconsin
Updated at 12:55 PM GMT on July 06, 2015 (7:55 AM CDT):
No PIREP is currently available for this location.
AIRMET - Airmens Meteorological Information
KRCX - Ladysmith, Wisconsin
Updated at 12:55 PM GMT on July 06, 2015 (7:55 AM CDT):
No AIRMET is currently available for this location.
SIGMET - Significant Meteorological Information
KRCX - Ladysmith, Wisconsin
Updated at 12:55 PM GMT on July 06, 2015 (7:55 AM CDT):
No SIGMET is currently available for this location.
NOTAM - Notice to Airmen
KRCX - Ladysmith, Wisconsin
Updated at 12:55 PM GMT on July 06, 2015 (7:55 AM CDT):
No NOTAM is currently available for this location.
Forecast Area
KRCX - Ladysmith, Wisconsin
Updated at 12:55 PM GMT on July 06, 2015 (7:55 AM CDT):
No NOTAM is currently available for this location.
Aviation Weather Maps